This is the latest recevied weather packets stored in our database for station/object KE5VT. If no packets are shown the sender has not sent any weather packets the latest 10 day(s).
| Time | Temp. | Humidity | Pressure | Rain* | Wind** | Luminosity | Snow |
|---|---|---|---|---|---|---|---|
| 1787936916 | 29.44° C | 78% | 1014.2 hPa | 0 mm | - | 202 W/m² | - |
| 1787936615 | 29.44° C | 76% | 1014.1 hPa | 0 mm | - | 587 W/m² | - |
| 1787936314 | 29.44° C | 74% | 1014.1 hPa | 0 mm | - | 701 W/m² | - |
| 1787936010 | 29.44° C | 77% | 1014.1 hPa | 0 mm | - | 643 W/m² | - |
| 1787935706 | 28.89° C | 77% | 1014.1 hPa | 0 mm | - | 223 W/m² | - |
| 1787935402 | 29.44° C | 78% | 1014 hPa | 0 mm | - | 186 W/m² | - |
| 1787935098 | 28.89° C | 78% | 1014.2 hPa | 0 mm | - | 322 W/m² | - |
| 1787934793 | 29.44° C | 76% | 1014.4 hPa | 0 mm | - | 264 W/m² | - |
| 1787934492 | 29.44° C | 77% | 1014.4 hPa | 0 mm | - | 193 W/m² | - |
| 1787934187 | 28.89° C | 79% | 1014.2 hPa | 0 mm | - | 258 W/m² | - |
| 1787933881 | 28.89° C | 77% | 1014.1 hPa | 0 mm | - | 186 W/m² | - |
| 1787933575 | 28.89° C | 77% | 1014.2 hPa | 0 mm | - | 274 W/m² | - |
| 1787933275 | 28.89° C | 76% | 1014.2 hPa | 0 mm | - | 181 W/m² | - |
| 1787932974 | 29.44° C | 75% | 1014.1 hPa | 0 mm | - | 158 W/m² | - |
| 1787932673 | 29.44° C | 74% | 1014.2 hPa | 0 mm | - | 389 W/m² | - |
| 1787932368 | 30° C | 73% | 1014.1 hPa | 0 mm | - | 363 W/m² | - |
| 1787932063 | 28.89° C | 77% | 1014.1 hPa | 0 mm | - | 412 W/m² | - |
| 1787931761 | 28.33° C | 80% | 1014.4 hPa | 0 mm | - | 314 W/m² | - |
| 1787931456 | 28.33° C | 79% | 1014.3 hPa | 0 mm | - | 355 W/m² | - |
| 1787931150 | 28.33° C | 80% | 1014.1 hPa | 0 mm | - | 459 W/m² | - |
| 1787930850 | 27.78° C | 81% | 1014.3 hPa | 0 mm | - | 566 W/m² | - |
| 1787930549 | 28.33° C | 80% | 1014.2 hPa | 0 mm | - | 524 W/m² | - |
| 1787930244 | 27.22° C | 82% | 1014.1 hPa | 0 mm | - | 518 W/m² | - |
| 1787929944 | 27.22° C | 85% | 1014.2 hPa | 0 mm | - | 524 W/m² | - |
| 1787929638 | 26.67° C | 86% | 1014 hPa | 0 mm | - | 489 W/m² | - |
* Rain latest hour (hover to see other rain measurements)
** Current wind speed in m/s (hover to see current wind gust speed)